Latest Weather Observations for Sheffield

IDT60801

Issued at 12:21 am EDT Saturday 16 November 2019 (issued every 10 minutes, with the page automatically refreshed every 10 minutes)

About weather observations | Map of weather stations | Latest weather observations for TAS | Other Formats
Station Details ID: 091291 Name: SHEFFIELD SCHOOL FARM Lat: -41.39 Lon: 146.32 Height: 294.2 m
Data from the previous 72 hours. | See also: Recent months at Sheffield
Date/Time
EDT
Temp
°C
App
Temp
°C
Dew
Point
°C
Rel
Hum
%
Delta-T
°C
Wind Press
QNH
hPa
Press
MSL
hPa
Rain since
9am
mm
Dir  Spd
km/h
Gust
km/h
Spd
kts
Gust
kts
16/12:00am 5.4 -0.6 1.1 74 1.7 WNW 22 33 12 18 1007.6 1007.4 0.2
 
Date/Time
EDT
Temp
°C
App
Temp
°C
Dew
Point
°C
Rel
Hum
%
Delta-T
°C
Wind Press
QNH
hPa
Press
MSL
hPa
Rain since
9am
mm
Dir  Spd
km/h
Gust
km/h
Spd
kts
Gust
kts
15/11:30pm 5.0 0.1 2.0 81 1.2 W 17 26 9 14 1007.8 1007.7 0.2
15/11:00pm 5.4 -0.8 2.1 79 1.4 WNW 24 32 13 17 1007.6 1007.4 0.2
15/10:30pm 5.3 0.8 2.0 79 1.3 WNW 15 28 8 15 1007.5 1007.3 0.2
15/10:00pm 5.0 0.8 1.7 79 1.3 W 13 19 7 10 1007.6 1007.4 0.2
15/09:30pm 5.3 0.8 2.1 80 1.3 WNW 15 20 8 11 1007.4 1007.2 0.2
15/09:00pm 6.4 1.1 1.9 73 1.9 W 19 32 10 17 1006.9 1006.7 0.2
15/08:30pm 6.2 1.4 2.8 79 1.4 WNW 17 22 9 12 1006.6 1006.4 0.2
15/08:00pm 6.2 1.9 3.0 80 1.4 WNW 15 24 8 13 1006.1 1005.9 0.2
15/07:30pm 6.8 1.7 3.1 77 1.6 W 19 28 10 15 1006.0 1005.8 0.2
15/07:03pm 6.8 -1.0 3.1 77 1.6 W 33 52 18 28 1005.6 1005.4 0.2
15/07:00pm 7.1 -1.4 3.0 75 1.8 W 37 54 20 29 1005.6 1005.4 0.2
15/06:36pm 9.0 2.0 1.9 61 3.0 W 28 48 15 26 1004.7 1004.5 0.2
15/06:30pm 9.6 3.5 2.5 61 3.1 W 24 35 13 19 1004.6 1004.4 0.2
15/06:00pm 9.3 2.0 2.4 62 3.0 W 30 50 16 27 1004.3 1004.1 0.2
15/05:33pm 10.5 2.7 2.6 58 3.4 WSW 33 52 18 28 1003.9 1003.7 0.2
15/05:30pm 11.1 3.5 2.9 57 3.6 WSW 32 50 17 27 1003.8 1003.6 0.2
15/05:00pm 8.9 1.3 2.9 66 2.6 W 32 46 17 25 1003.5 1003.3 0.2
15/04:45pm 10.8 3.6 3.1 59 3.4 WSW 30 56 16 30 1003.4 1003.2 0.2
15/04:30pm 10.9 3.6 2.7 57 3.6 W 30 46 16 25 1003.0 1002.8 0.2
15/04:00pm 10.5 3.0 3.5 62 3.1 SW 32 54 17 29 1002.9 1002.7 0.2
15/03:35pm 11.7 4.2 3.5 57 3.7 WSW 32 50 17 27 1002.5 1002.3 0.2
15/03:30pm 12.7 5.5 5.1 60 3.6 WSW 32 46 17 25 1002.4 1002.2 0.2
15/03:00pm 10.1 1.8 4.3 67 2.6 W 37 61 20 33 1002.5 1002.3 0.2
15/02:46pm 12.0 4.5 4.5 60 3.5 WNW 33 52 18 28 1001.9 1001.6 0.2
15/02:39pm 11.6 4.5 3.6 58 3.6 W 30 52 16 28 1001.7 1001.4 0.2
15/02:30pm 11.7 6.3 4.4 61 3.4 W 22 33 12 18 1001.8 1001.5 0.2
15/02:00pm 11.0 4.3 5.5 69 2.6 W 30 46 16 25 1002.1 1001.9 0.2
15/01:35pm 11.5 3.9 3.8 59 3.5 WSW 33 70 18 38 1001.8 1001.5 0.0
15/01:30pm 13.1 6.6 4.8 57 3.9 WSW 28 46 15 25 1001.7 1001.4 0.0
15/01:02pm 11.5 4.2 5.4 66 2.9 W 33 54 18 29 1001.8 1001.5 0.0
15/01:00pm 11.0 3.2 5.1 67 2.8 W 35 54 19 29 1001.8 1001.5 0.0
15/12:51pm 11.9 5.1 3.2 55 3.9 W 28 54 15 29 1001.5 1001.2 0.0
15/12:30pm 11.9 5.7 2.4 52 4.2 W 24 39 13 21 1001.5 1001.2 0.0
15/12:18pm 12.8 6.0 3.2 52 4.3 WSW 28 43 15 23 1001.6 1001.3 0.0
15/12:00pm 12.9 4.5 3.6 53 4.3 W 37 63 20 34 1001.7 1001.4 0.0
15/11:34am 12.2 4.4 4.9 61 3.4 W 35 54 19 29 1001.9 1001.6 0.0
15/11:30am 11.3 2.9 3.8 60 3.4 W 37 54 20 29 1001.8 1001.5 0.0
15/11:01am 12.1 5.2 2.8 53 4.1 WNW 28 46 15 25 1001.7 1001.4 0.0
15/11:00am 12.3 6.3 3.3 54 4.1 WNW 24 43 13 23 1001.8 1001.5 0.0
15/10:30am 11.5 5.6 2.0 52 4.1 W 22 35 12 19 1002.0 1001.7 0.0
15/10:00am 11.0 3.2 2.6 56 3.7 WSW 33 46 18 25 1002.2 1002.0 0.0
15/09:30am 10.3 2.7 2.9 60 3.2 WSW 32 48 17 26 1002.2 1002.0 0.0
15/09:07am 10.4 1.9 1.0 52 4.0 WSW 35 57 19 31 1001.9 1001.6 0.0
15/09:00am 10.7 2.6 0.7 50 4.2 WSW 33 48 18 26 1002.0 1001.7 0.0
15/08:30am 10.4 4.2 2.0 56 3.6 WNW 24 39 13 21 1001.7 1001.4 0.0
15/08:10am 9.9 2.7 0.5 52 3.9 W 28 54 15 29 1001.6 1001.3 0.0
15/08:00am 10.1 3.5 2.2 58 3.4 W 26 37 14 20 1001.7 1001.4 0.0
15/07:30am 10.0 4.5 4.2 67 2.6 W 22 33 12 18 1001.7 1001.4 0.0
15/07:00am 8.9 4.6 3.3 68 2.5 W 15 22 8 12 1001.5 1001.2 0.0
15/06:30am 8.5 3.3 3.6 71 2.1 WNW 20 33 11 18 1000.8 1000.6 0.0
15/06:00am 8.6 4.0 3.6 71 2.2 WNW 17 26 9 14 1000.6 1000.4 0.0
15/05:30am 8.3 4.2 4.3 76 1.8 WNW 15 22 8 12 1000.5 1000.3 0.0
15/05:00am 8.9 3.5 4.5 74 2.0 W 22 33 12 18 1000.3 1000.1 0.0
15/04:30am 9.1 4.9 5.5 78 1.7 W 17 26 9 14 1000.5 1000.3 0.0
15/04:00am 9.7 4.1 5.3 74 2.0 WNW 24 39 13 21 1000.3 1000.1 0.0
15/03:30am 9.2 2.7 4.8 74 2.0 WNW 28 41 15 22 1000.4 1000.2 0.0
15/03:00am 9.4 3.4 5.2 75 1.9 WNW 26 39 14 21 1000.3 1000.1 0.0
15/02:30am 9.0 3.6 6.4 84 1.2 WNW 24 33 13 18 1000.6 1000.4 0.0
15/02:00am 9.3 4.0 6.6 83 1.3 WNW 24 32 13 17 1000.9 1000.7 0.0
15/01:30am 9.6 3.8 6.1 79 1.6 WNW 26 39 14 21 1001.4 1001.1 0.0
15/01:00am 9.6 3.7 6.0 78 1.7 WNW 26 37 14 20 1001.4 1001.1 0.0
15/12:30am 9.8 2.8 6.2 78 1.7 WNW 32 46 17 25 1001.7 1001.4 0.0
15/12:21am 9.9 3.7 6.3 78 1.7 WNW 28 46 15 25 1001.8 1001.5 0.0
15/12:00am 10.3 3.2 5.7 73 2.2 W 32 44 17 24 1001.9 1001.6 0.0
 
Date/Time
EDT
Temp
°C
App
Temp
°C
Dew
Point
°C
Rel
Hum
%
Delta-T
°C
Wind Press
QNH
hPa
Press
MSL
hPa
Rain since
9am
mm
Dir  Spd
km/h
Gust
km/h
Spd
kts
Gust
kts
14/11:41pm 10.3 4.0 5.9 74 2.1 WNW 28 48 15 26 1001.8 1001.5 0.0
14/11:30pm 10.3 3.3 6.1 75 2.0 WNW 32 44 17 24 1002.1 1001.9 0.0
14/11:00pm 10.2 4.1 6.4 77 1.8 WNW 28 50 15 27 1002.3 1002.1 0.0
14/10:53pm 10.4 3.5 6.4 76 1.9 WNW 32 50 17 27 1002.4 1002.2 0.0
14/10:30pm 10.4 3.3 6.2 75 2.0 WNW 33 46 18 25 1002.7 1002.5 0.0
14/10:01pm 10.3 3.7 6.1 75 2.0 WNW 30 48 16 26 1002.9 1002.7 0.0
14/10:00pm 10.3 3.8 6.3 76 1.9 WNW 30 44 16 24 1002.9 1002.7 0.0
14/09:30pm 10.4 4.1 5.8 73 2.2 WNW 28 43 15 23 1003.2 1003.0 0.0
14/09:00pm 10.3 4.3 5.3 71 2.3 WNW 26 37 14 20 1003.1 1002.9 0.0
14/08:30pm 10.6 4.7 5.8 72 2.3 WNW 26 39 14 21 1003.2 1003.0 0.0
14/08:00pm 10.9 3.9 5.9 71 2.4 WNW 32 50 17 27 1003.3 1003.1 0.0
14/07:55pm 10.9 3.9 5.9 71 2.4 WNW 32 50 17 27 1003.2 1003.0 0.0
14/07:30pm 11.2 3.7 6.1 71 2.4 WNW 35 50 19 27 1003.4 1003.2 0.0
14/07:05pm 11.3 5.2 6.4 72 2.3 WNW 28 46 15 25 1003.5 1003.3 0.0
14/07:00pm 11.3 4.4 6.4 72 2.4 WNW 32 46 17 25 1003.5 1003.3 0.0
14/06:30pm 11.6 4.7 6.3 70 2.5 WNW 32 52 17 28 1003.5 1003.3 0.0
14/06:23pm 11.8 5.2 6.1 68 2.7 WNW 30 48 16 26 1003.6 1003.4 0.0
14/06:00pm 12.3 6.5 6.1 66 3.0 WNW 26 43 14 23 1003.7 1003.5 0.0
14/05:30pm 12.4 5.2 6.0 65 3.1 WNW 33 54 18 29 1003.7 1003.5 0.0
14/05:00pm 12.9 5.3 5.8 62 3.4 W 35 54 19 29 1003.5 1003.3 0.0
14/04:45pm 12.8 5.2 5.9 63 3.3 WNW 35 57 19 31 1003.7 1003.5 0.0
14/04:30pm 13.3 6.2 6.4 63 3.4 WNW 33 50 18 27 1003.7 1003.5 0.0
14/04:00pm 13.0 5.8 6.1 63 3.3 W 33 56 18 30 1004.0 1003.8 0.0
14/03:33pm 13.6 5.7 6.2 61 3.6 W 37 59 20 32 1004.0 1003.8 0.0
14/03:30pm 13.2 4.1 5.9 61 3.5 W 43 61 23 33 1003.9 1003.7 0.0
14/03:00pm 14.6 7.2 6.9 60 3.8 WNW 35 56 19 30 1004.0 1003.8 0.0
14/02:41pm 15.1 7.0 6.9 58 4.1 W 39 59 21 32 1003.9 1003.7 0.0
14/02:30pm 14.6 6.8 6.7 59 3.9 W 37 54 20 29 1004.0 1003.8 0.0
14/02:15pm 15.1 8.4 7.2 59 4.0 W 32 54 17 29 1004.0 1003.8 0.0
14/02:00pm 15.1 8.4 7.4 60 3.9 W 32 46 17 25 1003.9 1003.7 0.0
14/01:56pm 14.6 7.6 6.9 60 3.8 W 33 59 18 32 1004.0 1003.8 0.0
14/01:40pm 14.4 6.6 6.7 60 3.8 WNW 37 61 20 33 1003.7 1003.5 0.0
14/01:30pm 14.7 7.8 7.3 61 3.7 W 33 50 18 27 1004.0 1003.8 0.0
14/01:13pm 14.9 8.1 6.7 58 4.1 W 32 52 17 28 1004.0 1003.8 0.0
14/01:00pm 14.4 8.2 7.7 64 3.4 WNW 30 46 16 25 1003.6 1003.4 0.0
14/12:43pm 13.9 7.4 6.7 62 3.5 WNW 30 63 16 34 1003.6 1003.4 0.0
14/12:30pm 14.7 9.2 7.5 62 3.6 WNW 26 41 14 22 1003.9 1003.7 0.0
14/12:02pm 14.3 8.3 7.1 62 3.6 W 28 50 15 27 1004.1 1003.9 0.0
14/12:00pm 14.3 8.3 6.9 61 3.7 W 28 44 15 24 1004.2 1004.0 0.0
14/11:33am 13.7 6.6 6.6 62 3.5 WNW 33 52 18 28 1004.1 1003.9 0.0
14/11:30am 14.0 6.7 7.3 64 3.3 WNW 35 52 19 28 1004.1 1003.9 0.0
14/11:02am 14.2 5.4 7.3 63 3.4 WNW 43 63 23 34 1003.9 1003.7 0.0
14/11:00am 14.5 5.5 7.3 62 3.6 WNW 44 63 24 34 1003.8 1003.6 0.0
14/10:30am 14.0 7.3 8.0 67 3.0 WNW 33 54 18 29 1003.9 1003.7 0.0
14/10:20am 14.1 7.7 8.5 69 2.9 WNW 32 50 17 27 1003.9 1003.7 0.0
14/10:00am 13.5 7.4 8.1 70 2.7 WNW 30 39 16 21 1004.1 1003.9 0.0
14/09:30am 12.7 6.8 7.6 71 2.5 NW 28 44 15 24 1004.3 1004.1 0.0
14/09:00am 12.1 7.8 8.0 76 2.1 NW 20 28 11 15 1004.6 1004.4 0.2
14/08:30am 11.5 6.9 8.2 80 1.6 NW 22 32 12 17 1004.7 1004.5 0.2
14/08:00am 10.8 5.7 7.7 81 1.5 NW 24 33 13 18 1004.6 1004.4 0.2
14/07:30am 10.4 6.0 7.6 83 1.4 NW 20 32 11 17 1004.5 1004.3 0.2
14/07:00am 9.6 5.5 7.7 88 0.9 NW 19 32 10 17 1004.7 1004.5 0.2
14/06:30am 9.0 5.1 8.7 98 0.1 NNW 19 26 10 14 1004.5 1004.3 0.2
14/06:00am 8.7 4.8 8.6 99 0.0 NNW 19 24 10 13 1004.5 1004.3 0.2
14/05:30am 8.5 4.5 8.4 99 0.0 NNW 19 24 10 13 1004.5 1004.3 0.2
14/05:00am 8.4 4.2 8.3 99 0.0 NNW 20 28 11 15 1004.7 1004.5 0.2
14/04:30am 8.3 4.1 8.2 99 0.0 NNW 20 28 11 15 1005.0 1004.8 0.2
14/04:00am 8.2 4.1 7.9 98 0.1 NNW 19 24 10 13 1005.3 1005.1 0.2
14/03:30am 8.4 4.2 7.3 93 0.5 NNW 19 26 10 14 1005.6 1005.4 0.2
14/03:00am 8.3 4.0 7.2 93 0.5 NNW 19 24 10 13 1005.8 1005.6 0.2
14/02:30am 8.4 4.5 6.9 90 0.7 NNW 17 22 9 12 1006.2 1006.0 0.2
14/02:00am 8.4 4.3 6.2 86 1.0 NNW 17 20 9 11 1006.5 1006.3 0.2
14/01:30am 8.6 4.8 5.9 83 1.3 NW 15 20 8 11 1006.8 1006.6 0.2
14/01:00am 8.6 4.0 5.4 80 1.5 NW 19 26 10 14 1006.8 1006.6 0.2
14/12:30am 8.7 5.4 4.5 75 1.9 WNW 11 17 6 9 1007.1 1006.9 0.2
14/12:00am 8.9 4.0 4.1 72 2.1 W 19 30 10 16 1007.1 1006.9 0.2
 
Date/Time
EDT
Temp
°C
App
Temp
°C
Dew
Point
°C
Rel
Hum
%
Delta-T
°C
Wind Press
QNH
hPa
Press
MSL
hPa
Rain since
9am
mm
Dir  Spd
km/h
Gust
km/h
Spd
kts
Gust
kts
13/11:30pm 9.0 3.9 3.2 67 2.5 W 19 28 10 15 1007.2 1007.0 0.2
13/11:00pm 8.4 3.3 2.8 68 2.4 W 19 28 10 15 1007.2 1007.0 0.2
13/10:30pm 8.7 3.6 2.9 67 2.5 WNW 19 28 10 15 1007.3 1007.1 0.2
13/10:00pm 8.4 3.2 2.4 66 2.6 WNW 19 32 10 17 1007.1 1006.9 0.2
13/09:30pm 8.6 3.1 2.0 63 2.8 WNW 20 32 11 17 1006.6 1006.4 0.2
13/09:05pm 9.0 1.6 1.9 61 3.0 W 30 50 16 27 1006.2 1006.0 0.2
13/09:00pm 9.1 1.3 1.8 60 3.1 W 32 50 17 27 1005.9 1005.7 0.2
13/08:39pm 9.1 2.1 2.0 61 3.0 WSW 28 57 15 31 1005.8 1005.6 0.2
13/08:30pm 8.8 3.0 2.2 63 2.8 W 22 44 12 24 1005.9 1005.7 0.2
13/08:03pm 9.4 2.4 2.0 60 3.2 W 28 56 15 30 1005.2 1005.0 0.2
13/08:00pm 9.2 2.6 2.3 62 3.0 W 26 46 14 25 1005.3 1005.1 0.2
13/07:37pm 9.6 2.7 2.5 61 3.1 WSW 28 50 15 27 1004.3 1004.1 0.2
13/07:30pm 9.8 2.5 2.6 61 3.1 WSW 30 46 16 25 1004.2 1004.0 0.2
13/07:00pm 10.6 1.7 2.9 59 3.4 WSW 39 57 21 31 1003.7 1003.5 0.2
13/06:30pm 11.1 0.1 3.2 58 3.5 WSW 50 69 27 37 1002.9 1002.7 0.2
13/06:00pm 11.5 0.9 3.3 57 3.7 WSW 48 74 26 40 1002.5 1002.3 0.2
13/05:30pm 11.6 0.8 3.9 59 3.5 WSW 50 74 27 40 1002.3 1002.1 0.2
13/05:00pm 12.2 1.0 3.9 57 3.8 WSW 52 85 28 46 1001.8 1001.5 0.2
13/04:30pm 12.9 1.9 5.1 59 3.7 WSW 52 76 28 41 1001.6 1001.3 0.2
13/04:00pm 12.7 2.3 4.4 57 3.9 WSW 48 74 26 40 1001.7 1001.4 0.2
13/03:30pm 12.9 2.8 5.8 62 3.4 WSW 48 72 26 39 1001.9 1001.6 0.2
13/03:00pm 14.0 3.6 6.1 59 3.9 WSW 50 74 27 40 1001.5 1001.2 0.2
13/02:30pm 13.3 1.8 6.2 62 3.4 WSW 56 76 30 41 1001.5 1001.2 0.2
13/02:29pm 13.1 1.5 6.0 62 3.4 WSW 56 76 30 41 1001.5 1001.2 0.2
13/02:27pm 13.1 1.4 5.5 60 3.6 WSW 56 76 30 41 1001.4 1001.1 0.2
13/02:00pm 13.9 6.1 8.3 69 2.9 WSW 39 61 21 33 1001.6 1001.3 0.2
13/01:30pm 13.8 6.2 9.0 73 2.5 WSW 39 63 21 34 1001.1 1000.9 0.2
13/01:00pm 14.5 5.7 8.2 66 3.2 W 44 69 24 37 1000.6 1000.4 0.0
13/12:42pm 13.8 5.0 8.0 68 2.9 W 44 72 24 39 1000.5 1000.3 0.0
13/12:41pm 13.7 4.9 7.9 68 2.9 W 44 72 24 39 1000.4 1000.2 0.0
13/12:30pm 14.1 7.0 8.1 67 3.0 W 35 57 19 31 1000.6 1000.4 0.0
13/12:01pm 13.0 5.7 7.2 68 2.9 WNW 35 57 19 31 1001.0 1000.8 0.0
13/12:00pm 13.1 6.2 7.3 68 2.9 WNW 33 48 18 26 1001.1 1000.9 0.0
13/11:31am 12.1 5.2 7.4 73 2.3 WNW 33 54 18 29 1001.8 1001.5 0.0
13/11:30am 12.0 4.7 7.1 72 2.4 WNW 35 54 19 29 1001.8 1001.5 0.0
13/11:00am 11.1 4.1 5.8 70 2.5 WNW 32 52 17 28 1002.4 1002.2 0.0
13/10:43am 10.6 4.0 6.2 74 2.1 WNW 30 48 16 26 1002.7 1002.5 0.0
13/10:30am 10.6 3.5 6.2 74 2.1 NW 33 46 18 25 1002.7 1002.5 0.0
13/10:02am 10.0 3.5 4.8 70 2.4 WNW 28 48 15 26 1003.0 1002.8 0.0
13/10:00am 10.2 4.1 5.0 70 2.4 WNW 26 46 14 25 1003.0 1002.8 0.0
13/09:30am 9.8 4.4 4.4 69 2.4 W 22 37 12 20 1003.1 1002.9 0.0
13/09:00am 8.8 4.2 3.6 70 2.3 WNW 17 32 9 17 1003.4 1003.2 0.8
13/08:30am 8.1 5.5 3.2 71 2.1 N 6 11 3 6 1003.7 1003.5 0.8
13/08:00am 8.1 3.3 2.6 68 2.4 W 17 30 9 16 1003.9 1003.7 0.8
13/07:30am 7.7 1.5 2.2 68 2.3 W 24 35 13 19 1003.8 1003.6 0.8
13/07:00am 6.8 0.9 1.7 70 2.1 W 22 32 12 17 1003.9 1003.7 0.8
13/06:30am 6.4 0.9 2.1 74 1.8 W 20 35 11 19 1003.8 1003.6 0.8
13/06:00am 6.1 -1.0 1.2 71 2.0 W 28 43 15 23 1003.3 1003.1 0.8
13/05:30am 5.8 -0.5 1.3 73 1.8 WNW 24 35 13 19 1003.4 1003.2 0.8
13/05:00am 5.5 -0.1 1.1 73 1.8 WNW 20 32 11 17 1003.5 1003.3 0.8
13/04:30am 4.5 -0.3 0.5 75 1.6 WNW 15 26 8 14 1003.6 1003.4 0.8
13/04:00am 4.9 0.2 1.0 76 1.6 W 15 24 8 13 1004.1 1003.9 0.8
13/03:30am 4.7 -0.4 0.7 75 1.6 WNW 17 30 9 16 1004.1 1003.9 0.8
13/03:00am 4.8 -0.6 1.3 78 1.4 W 19 30 10 16 1004.1 1003.9 0.8
13/02:30am 5.4 -0.2 1.3 75 1.6 W 20 43 11 23 1004.1 1003.9 0.8
13/02:21am 5.8 -0.2 1.0 71 1.9 W 22 43 12 23 1004.0 1003.8 0.8
13/02:00am 5.3 1.0 0.7 72 1.8 WNW 13 20 7 11 1003.9 1003.7 0.8
13/01:30am 5.2 -1.6 1.0 74 1.7 W 26 44 14 24 1004.3 1004.1 0.8
13/01:00am 5.0 -0.5 0.9 75 1.6 WNW 19 28 10 15 1004.2 1004.0 0.8
13/12:30am 4.9 -1.1 1.0 76 1.5 WNW 22 33 12 18 1004.2 1004.0 0.8

Other formats

Comma delimited format used in spreadsheet applications
http://www.bom.gov.au/fwo/IDT60801/IDT60801.94955.axf

JavaScript Object Notation format (JSON) in row-major order
http://www.bom.gov.au/fwo/IDT60801/IDT60801.94955.json

Data quality

Most of these data are generated automatically and are frequently updated. Quality checks on data are not normally performed. It is possible for incorrect values to appear. Refer to information at About Latest Weather Observations and please check the disclaimer before using these data.